sensor_id;sensor_type;location;lat;lon;timestamp;P1;durP1;ratioP1;P2;durP2;ratioP2
15159;SDS011;7680;48.800;9.680;2022-07-23T00:01:58;10.00;;;9.13;;
15159;SDS011;7680;48.800;9.680;2022-07-23T00:04:31;8.38;;;7.82;;
15159;SDS011;7680;48.800;9.680;2022-07-23T00:07:04;9.55;;;8.77;;
15159;SDS011;7680;48.800;9.680;2022-07-23T00:09:38;8.95;;;8.30;;
15159;SDS011;7680;48.800;9.680;2022-07-23T00:12:11;9.80;;;9.10;;
15159;SDS011;7680;48.800;9.680;2022-07-23T00:14:44;9.68;;;8.85;;
15159;SDS011;7680;48.800;9.680;2022-07-23T00:17:18;9.55;;;8.85;;
15159;SDS011;7680;48.800;9.680;2022-07-23T00:19:51;10.68;;;9.68;;
15159;SDS011;7680;48.800;9.680;2022-07-23T00:22:25;10.55;;;9.43;;
15159;SDS011;7680;48.800;9.680;2022-07-23T00:24:58;9.38;;;8.60;;
15159;SDS011;7680;48.800;9.680;2022-07-23T00:27:52;9.52;;;8.80;;
15159;SDS011;7680;48.800;9.680;2022-07-23T00:30:25;9.93;;;9.02;;
15159;SDS011;7680;48.800;9.680;2022-07-23T00:33:03;9.32;;;8.57;;
15159;SDS011;7680;48.800;9.680;2022-07-23T00:35:39;8.48;;;7.88;;
15159;SDS011;7680;48.800;9.680;2022-07-23T00:38:13;9.15;;;8.48;;
15159;SDS011;7680;48.800;9.680;2022-07-23T00:40:46;8.50;;;7.95;;
15159;SDS011;7680;48.800;9.680;2022-07-23T00:43:19;9.50;;;8.80;;
15159;SDS011;7680;48.800;9.680;2022-07-23T00:45:53;8.93;;;8.23;;
15159;SDS011;7680;48.800;9.680;2022-07-23T00:48:27;9.27;;;8.57;;
15159;SDS011;7680;48.800;9.680;2022-07-23T00:51:00;9.50;;;8.82;;
15159;SDS011;7680;48.800;9.680;2022-07-23T00:53:34;9.05;;;8.43;;
15159;SDS011;7680;48.800;9.680;2022-07-23T00:56:07;8.70;;;8.10;;
15159;SDS011;7680;48.800;9.680;2022-07-23T00:58:40;9.15;;;8.30;;
15159;SDS011;7680;48.800;9.680;2022-07-23T01:01:15;8.30;;;7.60;;
15159;SDS011;7680;48.800;9.680;2022-07-23T01:03:49;8.65;;;7.95;;
15159;SDS011;7680;48.800;9.680;2022-07-23T01:06:23;9.80;;;8.93;;
15159;SDS011;7680;48.800;9.680;2022-07-23T01:08:56;9.90;;;9.00;;
15159;SDS011;7680;48.800;9.680;2022-07-23T01:11:29;9.68;;;8.98;;
15159;SDS011;7680;48.800;9.680;2022-07-23T01:14:13;9.50;;;8.75;;
15159;SDS011;7680;48.800;9.680;2022-07-23T01:16:48;10.77;;;9.73;;
15159;SDS011;7680;48.800;9.680;2022-07-23T01:19:23;10.75;;;9.85;;
15159;SDS011;7680;48.800;9.680;2022-07-23T01:21:56;10.45;;;9.60;;
15159;SDS011;7680;48.800;9.680;2022-07-23T01:24:32;10.10;;;9.40;;
15159;SDS011;7680;48.800;9.680;2022-07-23T01:27:05;10.45;;;9.65;;
15159;SDS011;7680;48.800;9.680;2022-07-23T01:29:38;8.93;;;8.32;;
15159;SDS011;7680;48.800;9.680;2022-07-23T01:32:12;9.85;;;9.13;;
15159;SDS011;7680;48.800;9.680;2022-07-23T01:34:45;9.02;;;8.32;;
15159;SDS011;7680;48.800;9.680;2022-07-23T01:37:18;8.50;;;7.90;;
15159;SDS011;7680;48.800;9.680;2022-07-23T01:39:52;9.02;;;8.32;;
15159;SDS011;7680;48.800;9.680;2022-07-23T01:42:25;8.10;;;7.40;;
15159;SDS011;7680;48.800;9.680;2022-07-23T01:44:59;8.55;;;7.95;;
15159;SDS011;7680;48.800;9.680;2022-07-23T01:47:32;8.90;;;8.20;;
15159;SDS011;7680;48.800;9.680;2022-07-23T01:50:06;8.73;;;8.02;;
15159;SDS011;7680;48.800;9.680;2022-07-23T01:52:40;8.60;;;7.90;;
15159;SDS011;7680;48.800;9.680;2022-07-23T01:55:14;8.25;;;7.65;;
15159;SDS011;7680;48.800;9.680;2022-07-23T01:57:49;8.48;;;7.88;;
15159;SDS011;7680;48.800;9.680;2022-07-23T02:00:22;8.40;;;7.80;;
15159;SDS011;7680;48.800;9.680;2022-07-23T02:02:55;9.07;;;8.32;;
15159;SDS011;7680;48.800;9.680;2022-07-23T02:05:29;8.73;;;8.02;;
15159;SDS011;7680;48.800;9.680;2022-07-23T02:08:03;8.77;;;8.07;;
15159;SDS011;7680;48.800;9.680;2022-07-23T02:10:37;7.72;;;7.22;;
15159;SDS011;7680;48.800;9.680;2022-07-23T02:13:11;8.10;;;7.60;;
15159;SDS011;7680;48.800;9.680;2022-07-23T02:15:49;8.20;;;7.57;;
15159;SDS011;7680;48.800;9.680;2022-07-23T02:18:22;9.07;;;8.27;;
15159;SDS011;7680;48.800;9.680;2022-07-23T02:20:55;8.65;;;7.97;;
15159;SDS011;7680;48.800;9.680;2022-07-23T02:23:28;7.93;;;7.22;;
15159;SDS011;7680;48.800;9.680;2022-07-23T02:26:02;7.90;;;7.30;;
15159;SDS011;7680;48.800;9.680;2022-07-23T02:28:36;8.02;;;7.43;;
15159;SDS011;7680;48.800;9.680;2022-07-23T02:31:09;7.95;;;7.25;;
15159;SDS011;7680;48.800;9.680;2022-07-23T02:33:42;8.77;;;8.07;;
15159;SDS011;7680;48.800;9.680;2022-07-23T02:36:15;8.18;;;7.57;;
15159;SDS011;7680;48.800;9.680;2022-07-23T02:38:48;8.27;;;7.57;;
15159;SDS011;7680;48.800;9.680;2022-07-23T02:41:23;8.52;;;7.88;;
15159;SDS011;7680;48.800;9.680;2022-07-23T02:43:56;8.40;;;7.80;;
15159;SDS011;7680;48.800;9.680;2022-07-23T02:46:29;8.32;;;7.72;;
15159;SDS011;7680;48.800;9.680;2022-07-23T02:49:02;8.20;;;7.50;;
15159;SDS011;7680;48.800;9.680;2022-07-23T02:51:37;7.60;;;7.10;;
15159;SDS011;7680;48.800;9.680;2022-07-23T02:54:10;8.13;;;7.43;;
15159;SDS011;7680;48.800;9.680;2022-07-23T02:56:44;8.13;;;7.50;;
15159;SDS011;7680;48.800;9.680;2022-07-23T02:59:18;8.20;;;7.53;;
15159;SDS011;7680;48.800;9.680;2022-07-23T03:01:51;8.60;;;7.90;;
15159;SDS011;7680;48.800;9.680;2022-07-23T03:04:24;8.25;;;7.65;;
15159;SDS011;7680;48.800;9.680;2022-07-23T03:06:57;8.73;;;8.02;;
15159;SDS011;7680;48.800;9.680;2022-07-23T03:09:30;8.23;;;7.53;;
15159;SDS011;7680;48.800;9.680;2022-07-23T03:12:05;8.68;;;8.07;;
15159;SDS011;7680;48.800;9.680;2022-07-23T03:14:44;8.23;;;7.63;;
15159;SDS011;7680;48.800;9.680;2022-07-23T03:17:17;7.97;;;7.28;;
15159;SDS011;7680;48.800;9.680;2022-07-23T03:19:50;7.30;;;6.75;;
15159;SDS011;7680;48.800;9.680;2022-07-23T03:22:23;8.73;;;8.13;;
15159;SDS011;7680;48.800;9.680;2022-07-23T03:24:57;8.73;;;8.02;;
15159;SDS011;7680;48.800;9.680;2022-07-23T03:27:31;8.30;;;7.70;;
15159;SDS011;7680;48.800;9.680;2022-07-23T03:30:05;8.98;;;8.20;;
15159;SDS011;7680;48.800;9.680;2022-07-23T03:32:39;8.25;;;7.65;;
15159;SDS011;7680;48.800;9.680;2022-07-23T03:35:12;9.02;;;8.32;;
15159;SDS011;7680;48.800;9.680;2022-07-23T03:37:47;9.10;;;8.40;;
15159;SDS011;7680;48.800;9.680;2022-07-23T03:40:20;8.65;;;8.00;;
15159;SDS011;7680;48.800;9.680;2022-07-23T03:42:55;8.60;;;7.97;;
15159;SDS011;7680;48.800;9.680;2022-07-23T03:45:28;8.90;;;8.07;;
15159;SDS011;7680;48.800;9.680;2022-07-23T03:48:01;8.25;;;7.65;;
15159;SDS011;7680;48.800;9.680;2022-07-23T03:50:35;8.63;;;8.02;;
15159;SDS011;7680;48.800;9.680;2022-07-23T03:53:08;8.38;;;7.57;;
15159;SDS011;7680;48.800;9.680;2022-07-23T03:55:41;8.60;;;7.90;;
15159;SDS011;7680;48.800;9.680;2022-07-23T03:58:16;7.72;;;7.13;;
15159;SDS011;7680;48.800;9.680;2022-07-23T04:00:49;8.27;;;7.68;;
15159;SDS011;7680;48.800;9.680;2022-07-23T04:03:22;8.25;;;7.65;;
15159;SDS011;7680;48.800;9.680;2022-07-23T04:05:55;8.15;;;7.55;;
15159;SDS011;7680;48.800;9.680;2022-07-23T04:08:28;8.25;;;7.72;;
15159;SDS011;7680;48.800;9.680;2022-07-23T04:11:01;8.18;;;7.53;;
15159;SDS011;7680;48.800;9.680;2022-07-23T04:13:36;8.70;;;8.00;;
15159;SDS011;7680;48.800;9.680;2022-07-23T04:16:09;9.13;;;8.45;;
15159;SDS011;7680;48.800;9.680;2022-07-23T04:18:42;9.88;;;9.00;;
15159;SDS011;7680;48.800;9.680;2022-07-23T04:21:15;9.55;;;8.75;;
15159;SDS011;7680;48.800;9.680;2022-07-23T04:23:49;9.23;;;8.32;;
15159;SDS011;7680;48.800;9.680;2022-07-23T04:26:22;9.25;;;8.55;;
15159;SDS011;7680;48.800;9.680;2022-07-23T04:28:56;9.05;;;8.45;;
15159;SDS011;7680;48.800;9.680;2022-07-23T04:31:29;8.55;;;7.85;;
15159;SDS011;7680;48.800;9.680;2022-07-23T04:34:07;8.80;;;8.05;;
15159;SDS011;7680;48.800;9.680;2022-07-23T04:36:40;8.40;;;7.80;;
15159;SDS011;7680;48.800;9.680;2022-07-23T04:39:14;9.35;;;8.55;;
15159;SDS011;7680;48.800;9.680;2022-07-23T04:41:47;8.82;;;8.13;;
15159;SDS011;7680;48.800;9.680;2022-07-23T04:44:21;9.02;;;8.32;;
15159;SDS011;7680;48.800;9.680;2022-07-23T04:46:54;9.02;;;8.38;;
15159;SDS011;7680;48.800;9.680;2022-07-23T04:49:27;9.00;;;8.20;;
15159;SDS011;7680;48.800;9.680;2022-07-23T04:52:01;9.10;;;8.30;;
15159;SDS011;7680;48.800;9.680;2022-07-23T04:54:34;8.65;;;7.85;;
15159;SDS011;7680;48.800;9.680;2022-07-23T04:57:07;8.73;;;8.00;;
15159;SDS011;7680;48.800;9.680;2022-07-23T04:59:41;8.63;;;7.93;;
15159;SDS011;7680;48.800;9.680;2022-07-23T05:02:15;9.15;;;8.35;;
15159;SDS011;7680;48.800;9.680;2022-07-23T05:04:48;7.65;;;7.15;;
15159;SDS011;7680;48.800;9.680;2022-07-23T05:07:21;7.88;;;7.28;;
15159;SDS011;7680;48.800;9.680;2022-07-23T05:09:54;8.32;;;7.63;;
15159;SDS011;7680;48.800;9.680;2022-07-23T05:12:27;7.68;;;7.15;;
15159;SDS011;7680;48.800;9.680;2022-07-23T05:15:02;7.60;;;7.00;;
15159;SDS011;7680;48.800;9.680;2022-07-23T05:17:35;8.07;;;7.50;;
15159;SDS011;7680;48.800;9.680;2022-07-23T05:20:08;8.02;;;7.32;;
15159;SDS011;7680;48.800;9.680;2022-07-23T05:22:42;7.90;;;7.30;;
15159;SDS011;7680;48.800;9.680;2022-07-23T05:25:16;8.27;;;7.68;;
15159;SDS011;7680;48.800;9.680;2022-07-23T05:27:49;7.93;;;7.22;;
15159;SDS011;7680;48.800;9.680;2022-07-23T05:30:23;8.55;;;7.85;;
15159;SDS011;7680;48.800;9.680;2022-07-23T05:32:56;8.05;;;7.45;;
15159;SDS011;7680;48.800;9.680;2022-07-23T05:35:29;8.57;;;7.88;;
15159;SDS011;7680;48.800;9.680;2022-07-23T05:38:02;8.88;;;8.15;;
15159;SDS011;7680;48.800;9.680;2022-07-23T05:40:35;8.15;;;7.50;;
15159;SDS011;7680;48.800;9.680;2022-07-23T05:43:09;7.43;;;6.82;;
15159;SDS011;7680;48.800;9.680;2022-07-23T05:45:43;7.95;;;7.28;;
15159;SDS011;7680;48.800;9.680;2022-07-23T05:48:16;8.18;;;7.47;;
15159;SDS011;7680;48.800;9.680;2022-07-23T05:50:49;7.85;;;7.25;;
15159;SDS011;7680;48.800;9.680;2022-07-23T05:53:22;8.32;;;7.53;;
15159;SDS011;7680;48.800;9.680;2022-07-23T05:55:56;7.80;;;7.22;;
15159;SDS011;7680;48.800;9.680;2022-07-23T05:58:29;8.23;;;7.53;;
15159;SDS011;7680;48.800;9.680;2022-07-23T06:01:03;8.10;;;7.50;;
15159;SDS011;7680;48.800;9.680;2022-07-23T06:03:37;7.63;;;7.03;;
15159;SDS011;7680;48.800;9.680;2022-07-23T06:06:10;8.13;;;7.53;;
15159;SDS011;7680;48.800;9.680;2022-07-23T06:08:43;7.68;;;7.07;;
15159;SDS011;7680;48.800;9.680;2022-07-23T06:11:16;7.93;;;7.32;;
15159;SDS011;7680;48.800;9.680;2022-07-23T06:13:49;7.63;;;7.13;;
15159;SDS011;7680;48.800;9.680;2022-07-23T06:16:24;7.70;;;7.10;;
15159;SDS011;7680;48.800;9.680;2022-07-23T06:18:57;7.95;;;7.25;;
15159;SDS011;7680;48.800;9.680;2022-07-23T06:21:31;7.70;;;7.20;;
15159;SDS011;7680;48.800;9.680;2022-07-23T06:24:19;7.55;;;7.05;;
15159;SDS011;7680;48.800;9.680;2022-07-23T06:26:53;7.93;;;7.32;;
15159;SDS011;7680;48.800;9.680;2022-07-23T06:29:26;7.40;;;6.80;;
15159;SDS011;7680;48.800;9.680;2022-07-23T06:32:00;7.80;;;7.18;;
15159;SDS011;7680;48.800;9.680;2022-07-23T06:34:33;7.63;;;6.88;;
15159;SDS011;7680;48.800;9.680;2022-07-23T06:37:06;7.75;;;7.25;;
15159;SDS011;7680;48.800;9.680;2022-07-23T06:39:42;7.40;;;6.80;;
15159;SDS011;7680;48.800;9.680;2022-07-23T06:42:15;7.20;;;6.70;;
15159;SDS011;7680;48.800;9.680;2022-07-23T06:44:48;7.30;;;6.70;;
15159;SDS011;7680;48.800;9.680;2022-07-23T06:47:23;7.38;;;6.88;;
15159;SDS011;7680;48.800;9.680;2022-07-23T06:49:56;7.68;;;7.13;;
15159;SDS011;7680;48.800;9.680;2022-07-23T06:52:29;7.88;;;7.28;;
15159;SDS011;7680;48.800;9.680;2022-07-23T06:55:03;7.50;;;6.90;;
15159;SDS011;7680;48.800;9.680;2022-07-23T06:57:37;7.90;;;7.30;;
15159;SDS011;7680;48.800;9.680;2022-07-23T07:00:10;7.53;;;6.82;;
15159;SDS011;7680;48.800;9.680;2022-07-23T07:02:45;7.93;;;7.32;;
15159;SDS011;7680;48.800;9.680;2022-07-23T07:05:19;7.85;;;7.30;;
15159;SDS011;7680;48.800;9.680;2022-07-23T07:07:52;8.20;;;7.50;;
15159;SDS011;7680;48.800;9.680;2022-07-23T07:10:26;7.65;;;7.13;;
15159;SDS011;7680;48.800;9.680;2022-07-23T07:12:59;7.80;;;7.20;;
15159;SDS011;7680;48.800;9.680;2022-07-23T07:15:32;8.15;;;7.45;;
15159;SDS011;7680;48.800;9.680;2022-07-23T07:18:07;7.85;;;7.25;;
15159;SDS011;7680;48.800;9.680;2022-07-23T07:20:40;7.78;;;7.22;;
15159;SDS011;7680;48.800;9.680;2022-07-23T07:23:13;7.63;;;7.00;;
15159;SDS011;7680;48.800;9.680;2022-07-23T07:25:46;7.60;;;7.00;;
15159;SDS011;7680;48.800;9.680;2022-07-23T07:28:19;7.22;;;6.72;;
15159;SDS011;7680;48.800;9.680;2022-07-23T07:30:53;7.43;;;6.93;;
15159;SDS011;7680;48.800;9.680;2022-07-23T07:33:27;7.10;;;6.50;;
15159;SDS011;7680;48.800;9.680;2022-07-23T07:36:00;7.22;;;6.72;;
15159;SDS011;7680;48.800;9.680;2022-07-23T07:38:34;7.43;;;6.93;;
15159;SDS011;7680;48.800;9.680;2022-07-23T07:41:08;7.63;;;7.13;;
15159;SDS011;7680;48.800;9.680;2022-07-23T07:43:41;8.80;;;8.10;;
15159;SDS011;7680;48.800;9.680;2022-07-23T07:46:14;8.30;;;7.60;;
15159;SDS011;7680;48.800;9.680;2022-07-23T07:48:49;8.82;;;8.02;;
15159;SDS011;7680;48.800;9.680;2022-07-23T07:51:28;7.68;;;7.07;;
15159;SDS011;7680;48.800;9.680;2022-07-23T07:54:01;8.18;;;7.57;;
15159;SDS011;7680;48.800;9.680;2022-07-23T07:56:35;8.07;;;7.47;;
15159;SDS011;7680;48.800;9.680;2022-07-23T07:59:10;8.25;;;7.70;;
15159;SDS011;7680;48.800;9.680;2022-07-23T08:01:43;7.97;;;7.30;;
15159;SDS011;7680;48.800;9.680;2022-07-23T08:04:17;8.25;;;7.65;;
15159;SDS011;7680;48.800;9.680;2022-07-23T08:06:51;8.65;;;7.95;;
15159;SDS011;7680;48.800;9.680;2022-07-23T08:09:24;8.07;;;7.38;;
15159;SDS011;7680;48.800;9.680;2022-07-23T08:11:57;8.30;;;7.70;;
15159;SDS011;7680;48.800;9.680;2022-07-23T08:14:30;7.90;;;7.30;;
15159;SDS011;7680;48.800;9.680;2022-07-23T08:17:03;7.57;;;7.07;;
15159;SDS011;7680;48.800;9.680;2022-07-23T08:19:46;8.10;;;7.30;;
15159;SDS011;7680;48.800;9.680;2022-07-23T08:22:20;8.32;;;7.45;;
15159;SDS011;7680;48.800;9.680;2022-07-23T08:24:53;7.30;;;6.78;;
15159;SDS011;7680;48.800;9.680;2022-07-23T08:27:26;7.55;;;7.00;;
15159;SDS011;7680;48.800;9.680;2022-07-23T08:29:59;7.78;;;7.18;;
15159;SDS011;7680;48.800;9.680;2022-07-23T08:32:32;7.03;;;6.47;;
15159;SDS011;7680;48.800;9.680;2022-07-23T08:35:18;7.28;;;6.78;;
15159;SDS011;7680;48.800;9.680;2022-07-23T08:37:56;7.70;;;7.00;;
15159;SDS011;7680;48.800;9.680;2022-07-23T08:40:32;7.50;;;7.00;;
15159;SDS011;7680;48.800;9.680;2022-07-23T08:43:14;7.25;;;6.70;;
15159;SDS011;7680;48.800;9.680;2022-07-23T08:45:51;7.82;;;7.30;;
15159;SDS011;7680;48.800;9.680;2022-07-23T08:48:28;7.05;;;6.55;;
15159;SDS011;7680;48.800;9.680;2022-07-23T08:51:05;7.25;;;6.57;;
15159;SDS011;7680;48.800;9.680;2022-07-23T08:53:41;7.25;;;6.55;;
15159;SDS011;7680;48.800;9.680;2022-07-23T08:56:16;7.60;;;7.00;;
15159;SDS011;7680;48.800;9.680;2022-07-23T08:58:50;7.47;;;6.88;;
15159;SDS011;7680;48.800;9.680;2022-07-23T09:01:28;7.00;;;6.53;;
15159;SDS011;7680;48.800;9.680;2022-07-23T09:04:01;7.63;;;7.00;;
15159;SDS011;7680;48.800;9.680;2022-07-23T09:06:36;7.57;;;7.07;;
15159;SDS011;7680;48.800;9.680;2022-07-23T09:09:18;7.55;;;7.05;;
15159;SDS011;7680;48.800;9.680;2022-07-23T09:12:01;7.25;;;6.65;;
15159;SDS011;7680;48.800;9.680;2022-07-23T09:14:37;7.60;;;7.00;;
15159;SDS011;7680;48.800;9.680;2022-07-23T09:17:12;7.68;;;7.07;;
15159;SDS011;7680;48.800;9.680;2022-07-23T09:19:47;8.10;;;7.30;;
15159;SDS011;7680;48.800;9.680;2022-07-23T09:22:22;8.18;;;7.57;;
15159;SDS011;7680;48.800;9.680;2022-07-23T09:25:02;7.10;;;6.50;;
15159;SDS011;7680;48.800;9.680;2022-07-23T09:27:45;7.68;;;7.13;;
15159;SDS011;7680;48.800;9.680;2022-07-23T09:30:26;7.97;;;7.28;;
15159;SDS011;7680;48.800;9.680;2022-07-23T09:33:09;7.63;;;7.03;;
15159;SDS011;7680;48.800;9.680;2022-07-23T09:35:48;8.10;;;7.50;;
15159;SDS011;7680;48.800;9.680;2022-07-23T09:38:24;8.10;;;7.53;;
15159;SDS011;7680;48.800;9.680;2022-07-23T09:41:07;8.52;;;7.80;;
15159;SDS011;7680;48.800;9.680;2022-07-23T09:43:41;8.20;;;7.47;;
15159;SDS011;7680;48.800;9.680;2022-07-23T09:46:18;7.80;;;7.30;;
15159;SDS011;7680;48.800;9.680;2022-07-23T09:48:54;7.75;;;7.25;;
15159;SDS011;7680;48.800;9.680;2022-07-23T09:51:28;8.43;;;7.82;;
15159;SDS011;7680;48.800;9.680;2022-07-23T09:54:08;7.60;;;7.00;;
15159;SDS011;7680;48.800;9.680;2022-07-23T09:56:56;7.95;;;7.43;;
15159;SDS011;7680;48.800;9.680;2022-07-23T09:59:33;7.63;;;7.03;;
15159;SDS011;7680;48.800;9.680;2022-07-23T10:02:10;7.85;;;7.25;;
15159;SDS011;7680;48.800;9.680;2022-07-23T10:04:46;8.60;;;7.93;;
15159;SDS011;7680;48.800;9.680;2022-07-23T10:07:21;8.63;;;7.72;;
15159;SDS011;7680;48.800;9.680;2022-07-23T10:09:57;7.80;;;7.20;;
15159;SDS011;7680;48.800;9.680;2022-07-23T10:12:32;8.50;;;7.80;;
15159;SDS011;7680;48.800;9.680;2022-07-23T10:15:28;7.47;;;6.97;;
15159;SDS011;7680;48.800;9.680;2022-07-23T10:18:01;8.18;;;7.47;;
15159;SDS011;7680;48.800;9.680;2022-07-23T10:20:34;7.43;;;6.93;;
15159;SDS011;7680;48.800;9.680;2022-07-23T10:23:11;7.57;;;7.00;;
15159;SDS011;7680;48.800;9.680;2022-07-23T10:25:57;7.45;;;6.95;;
15159;SDS011;7680;48.800;9.680;2022-07-23T10:28:42;7.72;;;7.13;;
15159;SDS011;7680;48.800;9.680;2022-07-23T10:31:34;7.93;;;7.32;;
15159;SDS011;7680;48.800;9.680;2022-07-23T10:34:36;7.43;;;6.88;;
15159;SDS011;7680;48.800;9.680;2022-07-23T10:37:17;7.72;;;7.18;;
15159;SDS011;7680;48.800;9.680;2022-07-23T10:40:11;7.53;;;6.93;;
15159;SDS011;7680;48.800;9.680;2022-07-23T10:42:50;8.45;;;7.85;;
15159;SDS011;7680;48.800;9.680;2022-07-23T10:45:28;7.40;;;6.90;;
15159;SDS011;7680;48.800;9.680;2022-07-23T10:48:14;7.32;;;6.82;;
15159;SDS011;7680;48.800;9.680;2022-07-23T10:53:55;8.18;;;7.50;;
15159;SDS011;7680;48.800;9.680;2022-07-23T10:56:50;7.13;;;6.63;;
15159;SDS011;7680;48.800;9.680;2022-07-23T11:02:55;7.72;;;7.03;;
15159;SDS011;7680;48.800;9.680;2022-07-23T11:05:39;7.28;;;6.68;;
15159;SDS011;7680;48.800;9.680;2022-07-23T11:08:18;7.28;;;6.78;;
15159;SDS011;7680;48.800;9.680;2022-07-23T11:10:53;7.05;;;6.65;;
15159;SDS011;7680;48.800;9.680;2022-07-23T11:13:29;7.45;;;6.95;;
15159;SDS011;7680;48.800;9.680;2022-07-23T11:16:25;7.40;;;6.85;;
15159;SDS011;7680;48.800;9.680;2022-07-23T11:18:59;7.72;;;7.15;;
15159;SDS011;7680;48.800;9.680;2022-07-23T11:21:49;7.32;;;6.85;;
15159;SDS011;7680;48.800;9.680;2022-07-23T11:24:23;7.22;;;6.72;;
15159;SDS011;7680;48.800;9.680;2022-07-23T11:27:01;7.68;;;7.07;;
15159;SDS011;7680;48.800;9.680;2022-07-23T11:29:42;7.68;;;7.18;;
15159;SDS011;7680;48.800;9.680;2022-07-23T11:32:22;7.20;;;6.70;;
15159;SDS011;7680;48.800;9.680;2022-07-23T11:35:25;7.70;;;7.15;;
15159;SDS011;7680;48.800;9.680;2022-07-23T11:38:04;7.07;;;6.57;;
15159;SDS011;7680;48.800;9.680;2022-07-23T11:40:39;6.47;;;5.93;;
15159;SDS011;7680;48.800;9.680;2022-07-23T11:43:12;7.28;;;6.88;;
15159;SDS011;7680;48.800;9.680;2022-07-23T11:45:47;7.40;;;6.90;;
15159;SDS011;7680;48.800;9.680;2022-07-23T11:48:24;7.35;;;6.75;;
15159;SDS011;7680;48.800;9.680;2022-07-23T11:51:00;7.20;;;6.70;;
15159;SDS011;7680;48.800;9.680;2022-07-23T11:53:33;7.00;;;6.50;;
15159;SDS011;7680;48.800;9.680;2022-07-23T11:56:08;7.07;;;6.50;;
15159;SDS011;7680;48.800;9.680;2022-07-23T11:58:54;6.20;;;5.80;;
15159;SDS011;7680;48.800;9.680;2022-07-23T12:01:30;6.68;;;6.18;;
15159;SDS011;7680;48.800;9.680;2022-07-23T12:04:06;6.70;;;6.30;;
15159;SDS011;7680;48.800;9.680;2022-07-23T12:06:40;6.72;;;6.22;;
15159;SDS011;7680;48.800;9.680;2022-07-23T12:09:13;6.10;;;5.70;;
15159;SDS011;7680;48.800;9.680;2022-07-23T12:11:56;6.50;;;6.00;;
15159;SDS011;7680;48.800;9.680;2022-07-23T12:14:30;5.95;;;5.55;;
15159;SDS011;7680;48.800;9.680;2022-07-23T12:17:06;6.22;;;5.80;;
15159;SDS011;7680;48.800;9.680;2022-07-23T12:19:41;6.72;;;6.32;;
15159;SDS011;7680;48.800;9.680;2022-07-23T12:22:16;6.57;;;6.18;;
15159;SDS011;7680;48.800;9.680;2022-07-23T12:24:52;6.78;;;6.28;;
15159;SDS011;7680;48.800;9.680;2022-07-23T12:27:30;6.85;;;6.35;;
15159;SDS011;7680;48.800;9.680;2022-07-23T12:30:16;6.07;;;5.57;;
15159;SDS011;7680;48.800;9.680;2022-07-23T12:32:52;6.20;;;5.80;;
15159;SDS011;7680;48.800;9.680;2022-07-23T12:35:32;6.38;;;5.90;;
15159;SDS011;7680;48.800;9.680;2022-07-23T12:38:08;6.55;;;6.05;;
15159;SDS011;7680;48.800;9.680;2022-07-23T12:40:45;5.70;;;5.30;;
15159;SDS011;7680;48.800;9.680;2022-07-23T12:43:21;6.65;;;6.25;;
15159;SDS011;7680;48.800;9.680;2022-07-23T12:45:57;6.43;;;6.03;;
15159;SDS011;7680;48.800;9.680;2022-07-23T12:48:37;7.13;;;6.53;;
15159;SDS011;7680;48.800;9.680;2022-07-23T12:51:16;6.18;;;5.75;;
15159;SDS011;7680;48.800;9.680;2022-07-23T12:53:53;6.88;;;6.30;;
15159;SDS011;7680;48.800;9.680;2022-07-23T12:56:28;7.20;;;6.60;;
15159;SDS011;7680;48.800;9.680;2022-07-23T12:59:05;7.30;;;6.70;;
15159;SDS011;7680;48.800;9.680;2022-07-23T13:01:42;7.22;;;6.57;;
15159;SDS011;7680;48.800;9.680;2022-07-23T13:04:22;6.90;;;6.40;;
15159;SDS011;7680;48.800;9.680;2022-07-23T13:06:58;7.18;;;6.68;;
15159;SDS011;7680;48.800;9.680;2022-07-23T13:09:35;6.78;;;6.28;;
15159;SDS011;7680;48.800;9.680;2022-07-23T13:12:13;7.22;;;6.70;;
15159;SDS011;7680;48.800;9.680;2022-07-23T13:14:46;7.32;;;6.82;;
15159;SDS011;7680;48.800;9.680;2022-07-23T13:17:19;7.38;;;6.78;;
15159;SDS011;7680;48.800;9.680;2022-07-23T13:19:52;7.05;;;6.53;;
15159;SDS011;7680;48.800;9.680;2022-07-23T13:22:27;6.88;;;6.30;;
15159;SDS011;7680;48.800;9.680;2022-07-23T13:25:00;6.47;;;6.07;;
15159;SDS011;7680;48.800;9.680;2022-07-23T13:27:35;6.80;;;6.30;;
15159;SDS011;7680;48.800;9.680;2022-07-23T13:30:11;7.05;;;6.55;;
15159;SDS011;7680;48.800;9.680;2022-07-23T13:32:44;6.72;;;6.32;;
15159;SDS011;7680;48.800;9.680;2022-07-23T13:35:17;6.93;;;6.47;;
15159;SDS011;7680;48.800;9.680;2022-07-23T13:37:52;7.60;;;7.00;;
15159;SDS011;7680;48.800;9.680;2022-07-23T13:40:25;7.30;;;6.80;;
15159;SDS011;7680;48.800;9.680;2022-07-23T13:42:58;7.10;;;6.60;;
15159;SDS011;7680;48.800;9.680;2022-07-23T13:45:31;7.57;;;6.97;;
15159;SDS011;7680;48.800;9.680;2022-07-23T13:48:05;7.63;;;7.13;;
15159;SDS011;7680;48.800;9.680;2022-07-23T13:50:40;7.47;;;6.97;;
15159;SDS011;7680;48.800;9.680;2022-07-23T13:53:16;7.22;;;6.72;;
15159;SDS011;7680;48.800;9.680;2022-07-23T13:55:51;7.80;;;7.30;;
15159;SDS011;7680;48.800;9.680;2022-07-23T13:58:26;7.07;;;6.63;;
15159;SDS011;7680;48.800;9.680;2022-07-23T14:01:01;7.30;;;6.80;;
15159;SDS011;7680;48.800;9.680;2022-07-23T14:03:35;8.00;;;7.40;;
15159;SDS011;7680;48.800;9.680;2022-07-23T14:06:08;6.88;;;6.47;;
15159;SDS011;7680;48.800;9.680;2022-07-23T14:08:48;7.57;;;6.97;;
15159;SDS011;7680;48.800;9.680;2022-07-23T14:11:22;7.45;;;6.97;;
15159;SDS011;7680;48.800;9.680;2022-07-23T14:13:55;7.50;;;6.90;;
15159;SDS011;7680;48.800;9.680;2022-07-23T14:16:29;7.55;;;7.05;;
15159;SDS011;7680;48.800;9.680;2022-07-23T14:19:03;7.78;;;7.18;;
15159;SDS011;7680;48.800;9.680;2022-07-23T14:21:37;7.82;;;7.28;;
15159;SDS011;7680;48.800;9.680;2022-07-23T14:24:12;7.40;;;6.90;;
15159;SDS011;7680;48.800;9.680;2022-07-23T14:26:45;7.72;;;7.22;;
15159;SDS011;7680;48.800;9.680;2022-07-23T14:29:18;8.18;;;7.47;;
15159;SDS011;7680;48.800;9.680;2022-07-23T14:31:51;7.45;;;6.95;;
15159;SDS011;7680;48.800;9.680;2022-07-23T14:34:25;8.27;;;7.57;;
15159;SDS011;7680;48.800;9.680;2022-07-23T14:36:59;7.97;;;7.38;;
15159;SDS011;7680;48.800;9.680;2022-07-23T14:39:33;8.20;;;7.60;;
15159;SDS011;7680;48.800;9.680;2022-07-23T14:42:08;10.45;;;9.40;;
15159;SDS011;7680;48.800;9.680;2022-07-23T14:44:41;9.75;;;8.95;;
15159;SDS011;7680;48.800;9.680;2022-07-23T14:47:15;8.02;;;7.53;;
15159;SDS011;7680;48.800;9.680;2022-07-23T14:49:52;9.13;;;8.32;;
15159;SDS011;7680;48.800;9.680;2022-07-23T14:52:25;9.48;;;8.57;;
15159;SDS011;7680;48.800;9.680;2022-07-23T14:55:00;11.63;;;10.40;;
15159;SDS011;7680;48.800;9.680;2022-07-23T14:57:33;8.90;;;8.20;;
15159;SDS011;7680;48.800;9.680;2022-07-23T15:00:07;8.93;;;8.23;;
15159;SDS011;7680;48.800;9.680;2022-07-23T15:02:41;8.82;;;8.23;;
15159;SDS011;7680;48.800;9.680;2022-07-23T15:05:23;8.88;;;8.07;;
15159;SDS011;7680;48.800;9.680;2022-07-23T15:07:57;9.27;;;8.48;;
15159;SDS011;7680;48.800;9.680;2022-07-23T15:10:32;9.60;;;8.90;;
15159;SDS011;7680;48.800;9.680;2022-07-23T15:13:05;10.13;;;9.43;;
15159;SDS011;7680;48.800;9.680;2022-07-23T15:15:38;8.73;;;8.13;;
15159;SDS011;7680;48.800;9.680;2022-07-23T15:18:13;9.40;;;8.68;;
15159;SDS011;7680;48.800;9.680;2022-07-23T15:20:48;9.15;;;8.45;;
15159;SDS011;7680;48.800;9.680;2022-07-23T15:23:22;9.10;;;8.40;;
15159;SDS011;7680;48.800;9.680;2022-07-23T15:25:57;9.70;;;9.00;;
15159;SDS011;7680;48.800;9.680;2022-07-23T15:28:31;8.88;;;8.25;;
15159;SDS011;7680;48.800;9.680;2022-07-23T15:31:04;9.27;;;8.52;;
15159;SDS011;7680;48.800;9.680;2022-07-23T15:33:39;9.55;;;8.85;;
15159;SDS011;7680;48.800;9.680;2022-07-23T15:36:12;8.70;;;8.10;;
15159;SDS011;7680;48.800;9.680;2022-07-23T15:38:46;9.07;;;8.48;;
15159;SDS011;7680;48.800;9.680;2022-07-23T15:41:23;9.38;;;8.57;;
15159;SDS011;7680;48.800;9.680;2022-07-23T15:43:57;9.20;;;8.40;;
15159;SDS011;7680;48.800;9.680;2022-07-23T15:46:31;9.18;;;8.57;;
15159;SDS011;7680;48.800;9.680;2022-07-23T15:49:04;10.63;;;9.93;;
15159;SDS011;7680;48.800;9.680;2022-07-23T15:51:49;10.00;;;9.30;;
15159;SDS011;7680;48.800;9.680;2022-07-23T15:54:22;8.95;;;8.25;;
15159;SDS011;7680;48.800;9.680;2022-07-23T15:56:56;9.38;;;8.65;;